sensor_id;sensor_type;location;lat;lon;timestamp;pressure;altitude;pressure_sealevel;temperature;humidity
13235;BME280;6683;48.506;9.050;2023-03-15T00:00:46;97737.81;;;5.70;70.49
13235;BME280;6683;48.506;9.050;2023-03-15T00:03:49;97733.25;;;5.72;70.34
13235;BME280;6683;48.506;9.050;2023-03-15T00:06:51;97735.03;;;5.72;71.17
13235;BME280;6683;48.506;9.050;2023-03-15T00:09:54;97741.28;;;5.71;70.22
13235;BME280;6683;48.506;9.050;2023-03-15T00:12:56;97743.06;;;5.70;70.76
13235;BME280;6683;48.506;9.050;2023-03-15T00:16:01;97745.69;;;5.70;70.61
13235;BME280;6683;48.506;9.050;2023-03-15T00:19:04;97760.41;;;5.71;70.89
13235;BME280;6683;48.506;9.050;2023-03-15T00:22:07;97769.41;;;5.68;70.27
13235;BME280;6683;48.506;9.050;2023-03-15T00:25:10;97793.31;;;5.65;70.32
13235;BME280;6683;48.506;9.050;2023-03-15T00:28:13;97792.50;;;5.65;70.65
13235;BME280;6683;48.506;9.050;2023-03-15T00:31:20;97796.75;;;5.66;71.18
13235;BME280;6683;48.506;9.050;2023-03-15T00:34:23;97808.03;;;5.66;71.15
13235;BME280;6683;48.506;9.050;2023-03-15T00:37:26;97812.28;;;5.67;70.47
13235;BME280;6683;48.506;9.050;2023-03-15T00:40:29;97820.78;;;5.69;71.20
13235;BME280;6683;48.506;9.050;2023-03-15T00:43:31;97830.47;;;5.69;71.11
13235;BME280;6683;48.506;9.050;2023-03-15T00:46:35;97835.53;;;5.71;70.84
13235;BME280;6683;48.506;9.050;2023-03-15T00:49:38;97830.94;;;5.73;70.91
13235;BME280;6683;48.506;9.050;2023-03-15T00:52:40;97836.19;;;5.73;70.62
13235;BME280;6683;48.506;9.050;2023-03-15T00:55:43;97845.69;;;5.74;71.05
13235;BME280;6683;48.506;9.050;2023-03-15T00:58:46;97846.34;;;5.76;70.85
13235;BME280;6683;48.506;9.050;2023-03-15T01:01:50;97845.34;;;5.77;71.07
13235;BME280;6683;48.506;9.050;2023-03-15T01:04:52;97847.97;;;5.77;71.20
13235;BME280;6683;48.506;9.050;2023-03-15T01:07:55;97861.41;;;5.74;71.02
13235;BME280;6683;48.506;9.050;2023-03-15T01:11:01;97858.44;;;5.68;70.91
13235;BME280;6683;48.506;9.050;2023-03-15T01:14:04;97872.84;;;5.64;71.13
13235;BME280;6683;48.506;9.050;2023-03-15T01:17:10;97868.56;;;5.63;70.72
13235;BME280;6683;48.506;9.050;2023-03-15T01:20:13;97882.50;;;5.64;70.94
13235;BME280;6683;48.506;9.050;2023-03-15T01:23:16;97892.78;;;5.65;71.42
13235;BME280;6683;48.506;9.050;2023-03-15T01:26:18;97895.25;;;5.67;70.92
13235;BME280;6683;48.506;9.050;2023-03-15T01:29:21;97897.06;;;5.66;71.52
13235;BME280;6683;48.506;9.050;2023-03-15T01:32:26;97893.63;;;5.66;71.12
13235;BME280;6683;48.506;9.050;2023-03-15T01:35:28;97903.78;;;5.69;71.25
13235;BME280;6683;48.506;9.050;2023-03-15T01:38:31;97906.41;;;5.69;71.64
13235;BME280;6683;48.506;9.050;2023-03-15T01:41:34;97914.25;;;5.69;71.66
13235;BME280;6683;48.506;9.050;2023-03-15T01:44:55;97917.19;;;5.66;70.85
13235;BME280;6683;48.506;9.050;2023-03-15T01:47:58;97920.78;;;5.65;71.35
13235;BME280;6683;48.506;9.050;2023-03-15T01:51:06;97922.25;;;5.59;71.47
13235;BME280;6683;48.506;9.050;2023-03-15T01:54:14;97921.75;;;5.56;70.70
13235;BME280;6683;48.506;9.050;2023-03-15T01:57:21;97921.56;;;5.49;70.49
13235;BME280;6683;48.506;9.050;2023-03-15T02:00:26;97921.41;;;5.43;70.89
13235;BME280;6683;48.506;9.050;2023-03-15T02:03:35;97924.16;;;5.33;70.94
13235;BME280;6683;48.506;9.050;2023-03-15T02:06:39;97924.94;;;5.26;70.45
13235;BME280;6683;48.506;9.050;2023-03-15T02:09:53;97929.66;;;5.14;70.04
13235;BME280;6683;48.506;9.050;2023-03-15T02:12:58;97929.81;;;5.05;70.29
13235;BME280;6683;48.506;9.050;2023-03-15T02:16:01;97931.72;;;4.95;70.03
13235;BME280;6683;48.506;9.050;2023-03-15T02:19:19;97932.00;;;4.83;70.32
13235;BME280;6683;48.506;9.050;2023-03-15T02:22:32;97937.34;;;4.74;70.63
13235;BME280;6683;48.506;9.050;2023-03-15T02:25:42;97944.31;;;4.65;70.71
13235;BME280;6683;48.506;9.050;2023-03-15T02:28:49;97947.06;;;4.56;70.41
13235;BME280;6683;48.506;9.050;2023-03-15T02:31:52;97951.91;;;4.51;70.67
13235;BME280;6683;48.506;9.050;2023-03-15T02:34:56;97956.13;;;4.44;70.75
13235;BME280;6683;48.506;9.050;2023-03-15T02:37:59;97964.72;;;4.36;70.98
13235;BME280;6683;48.506;9.050;2023-03-15T02:41:03;97968.63;;;4.32;71.50
13235;BME280;6683;48.506;9.050;2023-03-15T02:44:12;97975.78;;;4.30;71.21
13235;BME280;6683;48.506;9.050;2023-03-15T02:47:20;97976.78;;;4.29;71.53
13235;BME280;6683;48.506;9.050;2023-03-15T02:50:24;97988.06;;;4.30;71.67
13235;BME280;6683;48.506;9.050;2023-03-15T02:53:27;97988.19;;;4.28;71.31
13235;BME280;6683;48.506;9.050;2023-03-15T02:56:30;97993.72;;;4.25;71.42
13235;BME280;6683;48.506;9.050;2023-03-15T02:59:34;98000.06;;;4.23;71.83
13235;BME280;6683;48.506;9.050;2023-03-15T03:02:37;98012.47;;;4.21;71.49
13235;BME280;6683;48.506;9.050;2023-03-15T03:05:39;98017.97;;;4.18;71.87
13235;BME280;6683;48.506;9.050;2023-03-15T03:08:42;98016.63;;;4.14;71.71
13235;BME280;6683;48.506;9.050;2023-03-15T03:11:47;98016.13;;;4.10;71.69
13235;BME280;6683;48.506;9.050;2023-03-15T03:14:51;98021.78;;;4.05;72.02
13235;BME280;6683;48.506;9.050;2023-03-15T03:17:54;98030.75;;;4.03;71.38
13235;BME280;6683;48.506;9.050;2023-03-15T03:20:57;98034.47;;;4.00;71.69
13235;BME280;6683;48.506;9.050;2023-03-15T03:24:00;98041.78;;;3.97;71.36
13235;BME280;6683;48.506;9.050;2023-03-15T03:27:03;98038.66;;;3.93;71.43
13235;BME280;6683;48.506;9.050;2023-03-15T03:30:11;98049.38;;;3.90;71.78
13235;BME280;6683;48.506;9.050;2023-03-15T03:33:13;98052.16;;;3.89;72.09
13235;BME280;6683;48.506;9.050;2023-03-15T03:36:16;98057.66;;;3.86;72.27
13235;BME280;6683;48.506;9.050;2023-03-15T03:39:19;98063.88;;;3.85;71.84
13235;BME280;6683;48.506;9.050;2023-03-15T03:42:21;98066.47;;;3.85;71.75
13235;BME280;6683;48.506;9.050;2023-03-15T03:45:25;98077.06;;;3.83;72.09
13235;BME280;6683;48.506;9.050;2023-03-15T03:48:28;98071.03;;;3.83;71.95
13235;BME280;6683;48.506;9.050;2023-03-15T03:51:31;98087.50;;;3.83;72.05
13235;BME280;6683;48.506;9.050;2023-03-15T03:54:35;98084.91;;;3.83;71.70
13235;BME280;6683;48.506;9.050;2023-03-15T03:57:37;98091.09;;;3.82;72.44
13235;BME280;6683;48.506;9.050;2023-03-15T04:00:40;98090.56;;;3.79;72.26
13235;BME280;6683;48.506;9.050;2023-03-15T04:03:43;98093.59;;;3.74;71.52
13235;BME280;6683;48.506;9.050;2023-03-15T04:06:45;98095.81;;;3.69;71.79
13235;BME280;6683;48.506;9.050;2023-03-15T04:09:50;98098.06;;;3.64;71.35
13235;BME280;6683;48.506;9.050;2023-03-15T04:12:54;98104.69;;;3.59;71.73
13235;BME280;6683;48.506;9.050;2023-03-15T04:15:58;98106.06;;;3.53;71.40
13235;BME280;6683;48.506;9.050;2023-03-15T04:19:04;98111.59;;;3.50;71.75
13235;BME280;6683;48.506;9.050;2023-03-15T04:22:07;98117.63;;;3.51;72.13
13235;BME280;6683;48.506;9.050;2023-03-15T04:25:09;98117.91;;;3.48;72.00
13235;BME280;6683;48.506;9.050;2023-03-15T04:28:12;98121.34;;;3.48;71.81
13235;BME280;6683;48.506;9.050;2023-03-15T04:31:15;98123.28;;;3.46;72.07
13235;BME280;6683;48.506;9.050;2023-03-15T04:34:17;98132.91;;;3.46;72.29
13235;BME280;6683;48.506;9.050;2023-03-15T04:37:20;98134.69;;;3.45;72.65
13235;BME280;6683;48.506;9.050;2023-03-15T04:40:23;98135.66;;;3.44;71.69
13235;BME280;6683;48.506;9.050;2023-03-15T04:43:29;98142.94;;;3.41;72.15
13235;BME280;6683;48.506;9.050;2023-03-15T04:46:34;98153.09;;;3.34;72.00
13235;BME280;6683;48.506;9.050;2023-03-15T04:49:37;98148.19;;;3.31;72.04
13235;BME280;6683;48.506;9.050;2023-03-15T04:52:40;98145.03;;;3.28;72.08
13235;BME280;6683;48.506;9.050;2023-03-15T04:55:43;98151.50;;;3.23;71.60
13235;BME280;6683;48.506;9.050;2023-03-15T04:58:46;98154.41;;;3.20;71.90
13235;BME280;6683;48.506;9.050;2023-03-15T05:01:50;98154.66;;;3.17;71.89
13235;BME280;6683;48.506;9.050;2023-03-15T05:04:53;98150.56;;;3.15;71.88
13235;BME280;6683;48.506;9.050;2023-03-15T05:07:55;98147.25;;;3.13;72.44
13235;BME280;6683;48.506;9.050;2023-03-15T05:10:57;98149.19;;;3.11;72.15
13235;BME280;6683;48.506;9.050;2023-03-15T05:14:00;98151.00;;;3.10;72.31
13235;BME280;6683;48.506;9.050;2023-03-15T05:17:04;98150.31;;;3.08;72.44
13235;BME280;6683;48.506;9.050;2023-03-15T05:20:08;98150.31;;;3.08;72.78
13235;BME280;6683;48.506;9.050;2023-03-15T05:23:12;98151.13;;;3.09;72.47
13235;BME280;6683;48.506;9.050;2023-03-15T05:26:15;98156.34;;;3.09;72.75
13235;BME280;6683;48.506;9.050;2023-03-15T05:29:17;98160.59;;;3.10;72.59
13235;BME280;6683;48.506;9.050;2023-03-15T05:32:22;98165.81;;;3.10;72.44
13235;BME280;6683;48.506;9.050;2023-03-15T05:35:26;98165.81;;;3.10;72.65
13235;BME280;6683;48.506;9.050;2023-03-15T05:38:28;98173.63;;;3.10;72.34
13235;BME280;6683;48.506;9.050;2023-03-15T05:41:31;98164.97;;;3.09;72.36
13235;BME280;6683;48.506;9.050;2023-03-15T05:44:33;98165.81;;;3.10;72.75
13235;BME280;6683;48.506;9.050;2023-03-15T05:47:37;98166.66;;;3.10;72.55
13235;BME280;6683;48.506;9.050;2023-03-15T05:50:40;98176.25;;;3.10;72.45
13235;BME280;6683;48.506;9.050;2023-03-15T05:53:42;98178.03;;;3.09;72.68
13235;BME280;6683;48.506;9.050;2023-03-15T05:56:45;98179.94;;;3.07;72.20
13235;BME280;6683;48.506;9.050;2023-03-15T05:59:47;98173.09;;;3.06;72.24
13235;BME280;6683;48.506;9.050;2023-03-15T06:02:53;98174.06;;;3.05;72.73
13235;BME280;6683;48.506;9.050;2023-03-15T06:05:55;98172.94;;;3.08;72.53
13235;BME280;6683;48.506;9.050;2023-03-15T06:08:58;98192.16;;;3.07;72.65
13235;BME280;6683;48.506;9.050;2023-03-15T06:12:00;98179.94;;;3.07;72.49
13235;BME280;6683;48.506;9.050;2023-03-15T06:15:04;98189.44;;;3.08;72.60
13235;BME280;6683;48.506;9.050;2023-03-15T06:18:08;98190.09;;;3.10;72.51
13235;BME280;6683;48.506;9.050;2023-03-15T06:21:13;98188.88;;;3.14;72.51
13235;BME280;6683;48.506;9.050;2023-03-15T06:24:16;98191.31;;;3.16;72.66
13235;BME280;6683;48.506;9.050;2023-03-15T06:27:21;98195.28;;;3.20;72.56
13235;BME280;6683;48.506;9.050;2023-03-15T06:30:23;98192.28;;;3.24;73.20
13235;BME280;6683;48.506;9.050;2023-03-15T06:33:29;98205.84;;;3.28;73.06
13235;BME280;6683;48.506;9.050;2023-03-15T06:36:32;98209.69;;;3.34;72.57
13235;BME280;6683;48.506;9.050;2023-03-15T06:39:34;98212.69;;;3.39;73.38
13235;BME280;6683;48.506;9.050;2023-03-15T06:42:38;98220.78;;;3.45;72.77
13235;BME280;6683;48.506;9.050;2023-03-15T06:45:41;98210.19;;;3.56;73.23
13235;BME280;6683;48.506;9.050;2023-03-15T06:48:45;98208.06;;;3.69;73.70
13235;BME280;6683;48.506;9.050;2023-03-15T06:51:48;98217.03;;;3.94;73.58
13235;BME280;6683;48.506;9.050;2023-03-15T06:54:51;98213.75;;;4.19;73.55
13235;BME280;6683;48.506;9.050;2023-03-15T06:57:54;98216.63;;;4.43;73.48
13235;BME280;6683;48.506;9.050;2023-03-15T07:00:56;98218.78;;;4.65;73.69
13235;BME280;6683;48.506;9.050;2023-03-15T07:04:01;98228.66;;;4.89;73.36
13235;BME280;6683;48.506;9.050;2023-03-15T07:07:03;98228.06;;;5.13;73.26
13235;BME280;6683;48.506;9.050;2023-03-15T07:10:07;98224.59;;;5.30;73.27
13235;BME280;6683;48.506;9.050;2023-03-15T07:13:10;98228.44;;;5.43;73.46
13235;BME280;6683;48.506;9.050;2023-03-15T07:16:13;98223.09;;;5.53;73.50
13235;BME280;6683;48.506;9.050;2023-03-15T07:19:17;98238.25;;;5.67;73.74
13235;BME280;6683;48.506;9.050;2023-03-15T07:22:19;98234.69;;;5.94;74.69
13235;BME280;6683;48.506;9.050;2023-03-15T07:25:23;98226.28;;;6.24;74.54
13235;BME280;6683;48.506;9.050;2023-03-15T07:28:26;98231.16;;;6.61;74.93
13235;BME280;6683;48.506;9.050;2023-03-15T07:31:29;98241.69;;;7.01;74.64
13235;BME280;6683;48.506;9.050;2023-03-15T07:34:33;98228.41;;;7.43;74.30
13235;BME280;6683;48.506;9.050;2023-03-15T07:37:35;98236.25;;;7.75;73.76
13235;BME280;6683;48.506;9.050;2023-03-15T07:40:38;98227.13;;;8.01;73.58
13235;BME280;6683;48.506;9.050;2023-03-15T07:43:40;98234.78;;;8.27;73.49
13235;BME280;6683;48.506;9.050;2023-03-15T07:46:43;98232.41;;;8.48;73.45
13235;BME280;6683;48.506;9.050;2023-03-15T07:49:47;98251.56;;;8.65;73.71
13235;BME280;6683;48.506;9.050;2023-03-15T07:52:49;98248.34;;;8.77;73.39
13235;BME280;6683;48.506;9.050;2023-03-15T07:55:52;98248.00;;;8.80;72.92
13235;BME280;6683;48.506;9.050;2023-03-15T07:58:54;98249.00;;;8.79;73.23
13235;BME280;6683;48.506;9.050;2023-03-15T08:01:56;98244.25;;;8.75;72.60
13235;BME280;6683;48.506;9.050;2023-03-15T08:05:00;98247.56;;;8.69;72.16
13235;BME280;6683;48.506;9.050;2023-03-15T08:08:05;98246.81;;;8.60;71.91
13235;BME280;6683;48.506;9.050;2023-03-15T08:11:07;98249.47;;;8.52;71.36
13235;BME280;6683;48.506;9.050;2023-03-15T08:14:10;98252.28;;;8.43;71.47
13235;BME280;6683;48.506;9.050;2023-03-15T08:17:12;98243.66;;;8.34;71.59
13235;BME280;6683;48.506;9.050;2023-03-15T08:20:17;98237.06;;;8.22;71.21
13235;BME280;6683;48.506;9.050;2023-03-15T08:23:19;98243.00;;;8.16;71.42
13235;BME280;6683;48.506;9.050;2023-03-15T08:26:22;98248.94;;;8.10;71.57
13235;BME280;6683;48.506;9.050;2023-03-15T08:29:25;98255.72;;;8.04;71.66
13235;BME280;6683;48.506;9.050;2023-03-15T08:32:27;98245.38;;;8.03;71.98
13235;BME280;6683;48.506;9.050;2023-03-15T08:35:31;98236.66;;;8.02;72.43
13235;BME280;6683;48.506;9.050;2023-03-15T08:38:34;98241.72;;;8.12;73.05
13235;BME280;6683;48.506;9.050;2023-03-15T08:41:37;98239.72;;;8.30;73.70
13235;BME280;6683;48.506;9.050;2023-03-15T08:44:40;98239.72;;;8.61;74.62
13235;BME280;6683;48.506;9.050;2023-03-15T08:47:43;98239.25;;;9.11;75.10
13235;BME280;6683;48.506;9.050;2023-03-15T08:50:46;98237.47;;;9.48;73.99
13235;BME280;6683;48.506;9.050;2023-03-15T08:53:48;98237.75;;;9.68;72.84
13235;BME280;6683;48.506;9.050;2023-03-15T08:56:51;98242.50;;;10.02;72.97
13235;BME280;6683;48.506;9.050;2023-03-15T08:59:54;98234.84;;;10.65;72.92
13235;BME280;6683;48.506;9.050;2023-03-15T09:02:57;98235.44;;;11.45;71.60
13235;BME280;6683;48.506;9.050;2023-03-15T09:06:01;98241.38;;;12.02;69.81
13235;BME280;6683;48.506;9.050;2023-03-15T09:09:04;98238.56;;;12.45;68.80
13235;BME280;6683;48.506;9.050;2023-03-15T09:12:07;98239.75;;;13.03;68.27
13235;BME280;6683;48.506;9.050;2023-03-15T09:15:10;98238.44;;;13.66;67.38
13235;BME280;6683;48.506;9.050;2023-03-15T09:18:13;98239.38;;;14.30;65.80
13235;BME280;6683;48.506;9.050;2023-03-15T09:21:16;98242.91;;;14.68;63.46
13235;BME280;6683;48.506;9.050;2023-03-15T09:24:18;98250.81;;;14.37;62.93
13235;BME280;6683;48.506;9.050;2023-03-15T09:27:21;98258.00;;;14.04;62.80
13235;BME280;6683;48.506;9.050;2023-03-15T09:30:23;98255.56;;;13.70;63.53
13235;BME280;6683;48.506;9.050;2023-03-15T09:33:26;98260.06;;;13.43;63.02
13235;BME280;6683;48.506;9.050;2023-03-15T09:36:30;98265.72;;;13.20;63.78
13235;BME280;6683;48.506;9.050;2023-03-15T09:39:32;98266.81;;;12.92;63.72
13235;BME280;6683;48.506;9.050;2023-03-15T09:42:51;98275.28;;;12.61;64.54
13235;BME280;6683;48.506;9.050;2023-03-15T09:46:09;98278.44;;;12.37;65.52
13235;BME280;6683;48.506;9.050;2023-03-15T09:49:24;98274.88;;;12.23;65.32
13235;BME280;6683;48.506;9.050;2023-03-15T09:52:36;98271.59;;;12.21;65.95
13235;BME280;6683;48.506;9.050;2023-03-15T09:55:41;98262.69;;;12.29;66.12
13235;BME280;6683;48.506;9.050;2023-03-15T09:58:46;98262.78;;;12.48;66.15
13235;BME280;6683;48.506;9.050;2023-03-15T10:01:53;98272.84;;;12.59;65.79
13235;BME280;6683;48.506;9.050;2023-03-15T10:05:02;98261.91;;;12.82;66.16
13235;BME280;6683;48.506;9.050;2023-03-15T10:08:13;98268.38;;;13.27;66.43
13235;BME280;6683;48.506;9.050;2023-03-15T10:11:22;98268.63;;;13.78;65.69
13235;BME280;6683;48.506;9.050;2023-03-15T10:14:42;98268.56;;;14.23;64.88
13235;BME280;6683;48.506;9.050;2023-03-15T10:18:03;98262.78;;;14.53;63.56
13235;BME280;6683;48.506;9.050;2023-03-15T10:21:11;98256.03;;;14.57;62.86
13235;BME280;6683;48.506;9.050;2023-03-15T10:24:22;98258.00;;;14.74;63.32
13235;BME280;6683;48.506;9.050;2023-03-15T10:27:33;98255.69;;;15.60;62.65
13235;BME280;6683;48.506;9.050;2023-03-15T10:30:46;98253.94;;;16.15;61.56
13235;BME280;6683;48.506;9.050;2023-03-15T10:33:49;98258.34;;;16.45;60.75
13235;BME280;6683;48.506;9.050;2023-03-15T10:36:52;98249.94;;;17.26;60.91
13235;BME280;6683;48.506;9.050;2023-03-15T10:39:57;98250.44;;;18.22;59.53
13235;BME280;6683;48.506;9.050;2023-03-15T10:43:01;98228.41;;;19.06;58.84
13235;BME280;6683;48.506;9.050;2023-03-15T10:46:04;98241.91;;;19.89;57.43
13235;BME280;6683;48.506;9.050;2023-03-15T10:49:10;98240.25;;;20.38;56.19
13235;BME280;6683;48.506;9.050;2023-03-15T10:52:32;98236.75;;;20.81;54.88
13235;BME280;6683;48.506;9.050;2023-03-15T10:55:42;98227.91;;;21.28;54.10
13235;BME280;6683;48.506;9.050;2023-03-15T10:58:47;98228.63;;;21.77;53.00
13235;BME280;6683;48.506;9.050;2023-03-15T11:01:52;98224.44;;;22.33;52.20
13235;BME280;6683;48.506;9.050;2023-03-15T11:05:01;98223.06;;;22.82;51.11
13235;BME280;6683;48.506;9.050;2023-03-15T11:08:12;98220.06;;;22.69;50.30
13235;BME280;6683;48.506;9.050;2023-03-15T11:11:17;98224.50;;;22.43;50.27
13235;BME280;6683;48.506;9.050;2023-03-15T11:14:20;98217.97;;;22.29;50.82
13235;BME280;6683;48.506;9.050;2023-03-15T11:17:26;98213.88;;;22.16;51.09
13235;BME280;6683;48.506;9.050;2023-03-15T11:20:33;98209.56;;;22.62;50.43
13235;BME280;6683;48.506;9.050;2023-03-15T11:23:39;98201.38;;;23.09;49.48
13235;BME280;6683;48.506;9.050;2023-03-15T11:26:45;98194.34;;;23.08;49.16
13235;BME280;6683;48.506;9.050;2023-03-15T11:29:54;98214.41;;;22.70;48.43
13235;BME280;6683;48.506;9.050;2023-03-15T11:33:02;98216.38;;;21.91;49.51
13235;BME280;6683;48.506;9.050;2023-03-15T11:36:13;98209.53;;;21.15;50.25
13235;BME280;6683;48.506;9.050;2023-03-15T11:39:27;98204.19;;;20.29;50.71
13235;BME280;6683;48.506;9.050;2023-03-15T11:42:40;98202.72;;;19.66;51.46
13235;BME280;6683;48.506;9.050;2023-03-15T11:45:51;98196.59;;;18.93;52.59
13235;BME280;6683;48.506;9.050;2023-03-15T11:49:00;98197.91;;;18.27;52.86
13235;BME280;6683;48.506;9.050;2023-03-15T11:52:05;98201.44;;;17.58;53.67
13235;BME280;6683;48.506;9.050;2023-03-15T11:55:16;98207.78;;;17.05;54.61
13235;BME280;6683;48.506;9.050;2023-03-15T11:58:33;98207.69;;;17.11;56.30
13235;BME280;6683;48.506;9.050;2023-03-15T12:01:36;98211.06;;;17.60;55.93
13235;BME280;6683;48.506;9.050;2023-03-15T12:04:44;98201.22;;;18.06;55.13
13235;BME280;6683;48.506;9.050;2023-03-15T12:07:59;98209.47;;;17.70;54.79
13235;BME280;6683;48.506;9.050;2023-03-15T12:11:39;98208.69;;;17.40;54.91
13235;BME280;6683;48.506;9.050;2023-03-15T12:14:45;98211.50;;;17.04;55.28
13235;BME280;6683;48.506;9.050;2023-03-15T12:17:49;98206.44;;;17.25;55.55
13235;BME280;6683;48.506;9.050;2023-03-15T12:21:14;98200.75;;;17.75;55.08
13235;BME280;6683;48.506;9.050;2023-03-15T12:24:21;98191.47;;;17.66;54.25
13235;BME280;6683;48.506;9.050;2023-03-15T12:27:27;98195.00;;;17.36;55.12
13235;BME280;6683;48.506;9.050;2023-03-15T12:30:34;98200.09;;;16.97;54.93
13235;BME280;6683;48.506;9.050;2023-03-15T12:33:47;98206.56;;;16.41;56.27
13235;BME280;6683;48.506;9.050;2023-03-15T12:36:52;98205.50;;;16.24;56.00
13235;BME280;6683;48.506;9.050;2023-03-15T12:40:27;98196.00;;;15.92;56.76
13235;BME280;6683;48.506;9.050;2023-03-15T12:43:45;98208.22;;;15.57;57.58
13235;BME280;6683;48.506;9.050;2023-03-15T12:47:00;98198.19;;;15.28;58.13
13235;BME280;6683;48.506;9.050;2023-03-15T12:50:36;98193.94;;;14.95;58.50
13235;BME280;6683;48.506;9.050;2023-03-15T12:53:48;98186.44;;;14.79;58.98
13235;BME280;6683;48.506;9.050;2023-03-15T12:56:54;98187.53;;;14.65;58.94
13235;BME280;6683;48.506;9.050;2023-03-15T13:00:00;98186.38;;;14.48;58.56
13235;BME280;6683;48.506;9.050;2023-03-15T13:03:12;98190.97;;;14.34;58.94
13235;BME280;6683;48.506;9.050;2023-03-15T13:06:30;98192.38;;;14.24;59.15
13235;BME280;6683;48.506;9.050;2023-03-15T13:10:05;98189.78;;;14.11;59.37
13235;BME280;6683;48.506;9.050;2023-03-15T13:13:34;98192.28;;;13.93;59.49
13235;BME280;6683;48.506;9.050;2023-03-15T13:16:47;98192.13;;;13.75;59.63
13235;BME280;6683;48.506;9.050;2023-03-15T13:20:01;98193.72;;;13.56;59.58
13235;BME280;6683;48.506;9.050;2023-03-15T13:23:15;98187.63;;;13.29;60.03
13235;BME280;6683;48.506;9.050;2023-03-15T13:26:41;98193.13;;;13.21;60.70
13235;BME280;6683;48.506;9.050;2023-03-15T13:29:47;98198.63;;;13.13;60.50
13235;BME280;6683;48.506;9.050;2023-03-15T13:33:07;98201.66;;;12.97;60.69
13235;BME280;6683;48.506;9.050;2023-03-15T13:36:15;98198.16;;;12.90;60.77
13235;BME280;6683;48.506;9.050;2023-03-15T13:39:21;98194.28;;;12.93;60.84
13235;BME280;6683;48.506;9.050;2023-03-15T13:42:25;98192.25;;;12.95;60.67
13235;BME280;6683;48.506;9.050;2023-03-15T13:45:27;98200.00;;;12.96;60.77
13235;BME280;6683;48.506;9.050;2023-03-15T13:48:33;98189.59;;;12.95;60.04
13235;BME280;6683;48.506;9.050;2023-03-15T13:51:38;98183.91;;;12.98;60.57
13235;BME280;6683;48.506;9.050;2023-03-15T13:54:41;98188.41;;;13.04;60.14
13235;BME280;6683;48.506;9.050;2023-03-15T13:57:45;98191.06;;;13.04;59.86
13235;BME280;6683;48.506;9.050;2023-03-15T14:00:57;98188.41;;;12.97;59.82
13235;BME280;6683;48.506;9.050;2023-03-15T14:04:06;98193.06;;;12.89;59.60
13235;BME280;6683;48.506;9.050;2023-03-15T14:07:26;98190.19;;;12.83;59.88
13235;BME280;6683;48.506;9.050;2023-03-15T14:10:31;98190.00;;;12.78;59.57
13235;BME280;6683;48.506;9.050;2023-03-15T14:13:46;98203.84;;;12.74;59.47
13235;BME280;6683;48.506;9.050;2023-03-15T14:16:50;98211.53;;;12.69;58.94
13235;BME280;6683;48.506;9.050;2023-03-15T14:19:54;98206.44;;;12.61;58.86
13235;BME280;6683;48.506;9.050;2023-03-15T14:23:01;98203.34;;;12.51;58.99
13235;BME280;6683;48.506;9.050;2023-03-15T14:26:12;98188.63;;;12.42;59.16
13235;BME280;6683;48.506;9.050;2023-03-15T14:29:17;98190.25;;;12.36;59.01
13235;BME280;6683;48.506;9.050;2023-03-15T14:32:27;98196.56;;;12.35;58.74
13235;BME280;6683;48.506;9.050;2023-03-15T14:35:39;98183.53;;;12.34;58.83
13235;BME280;6683;48.506;9.050;2023-03-15T14:38:51;98191.84;;;12.31;59.05
13235;BME280;6683;48.506;9.050;2023-03-15T14:41:54;98185.53;;;12.25;58.66
13235;BME280;6683;48.506;9.050;2023-03-15T14:44:56;98187.75;;;12.22;58.77
13235;BME280;6683;48.506;9.050;2023-03-15T14:48:01;98193.25;;;12.20;59.06
13235;BME280;6683;48.506;9.050;2023-03-15T14:51:05;98194.44;;;12.18;58.71
13235;BME280;6683;48.506;9.050;2023-03-15T14:54:10;98190.97;;;12.17;59.10
13235;BME280;6683;48.506;9.050;2023-03-15T14:57:13;98201.38;;;12.19;59.14
13235;BME280;6683;48.506;9.050;2023-03-15T15:00:17;98190.94;;;12.11;59.01
13235;BME280;6683;48.506;9.050;2023-03-15T15:03:31;98207.97;;;12.01;58.91
13235;BME280;6683;48.506;9.050;2023-03-15T15:06:35;98205.50;;;11.93;59.25
13235;BME280;6683;48.506;9.050;2023-03-15T15:09:44;98204.03;;;11.84;59.38
13235;BME280;6683;48.506;9.050;2023-03-15T15:12:48;98215.00;;;11.81;59.24
13235;BME280;6683;48.506;9.050;2023-03-15T15:15:51;98213.94;;;11.76;59.33
13235;BME280;6683;48.506;9.050;2023-03-15T15:18:53;98224.47;;;11.69;59.27
13235;BME280;6683;48.506;9.050;2023-03-15T15:21:56;98227.22;;;11.61;59.24
13235;BME280;6683;48.506;9.050;2023-03-15T15:25:00;98225.53;;;11.54;59.20
13235;BME280;6683;48.506;9.050;2023-03-15T15:28:03;98235.44;;;11.45;59.26
13235;BME280;6683;48.506;9.050;2023-03-15T15:31:06;98248.78;;;11.37;59.44
13235;BME280;6683;48.506;9.050;2023-03-15T15:34:09;98242.63;;;11.30;59.51
13235;BME280;6683;48.506;9.050;2023-03-15T15:37:11;98250.09;;;11.26;59.64
13235;BME280;6683;48.506;9.050;2023-03-15T15:40:19;98248.59;;;11.17;59.76
13235;BME280;6683;48.506;9.050;2023-03-15T15:43:24;98259.31;;;11.09;59.75
13235;BME280;6683;48.506;9.050;2023-03-15T15:46:27;98268.97;;;11.02;59.99
13235;BME280;6683;48.506;9.050;2023-03-15T15:49:29;98266.66;;;10.93;59.56
13235;BME280;6683;48.506;9.050;2023-03-15T15:52:32;98268.75;;;10.83;60.30
13235;BME280;6683;48.506;9.050;2023-03-15T15:55:36;98276.97;;;10.73;60.43
13235;BME280;6683;48.506;9.050;2023-03-15T15:58:40;98284.16;;;10.65;60.55
13235;BME280;6683;48.506;9.050;2023-03-15T16:01:45;98279.97;;;10.56;60.43
13235;BME280;6683;48.506;9.050;2023-03-15T16:04:48;98287.84;;;10.49;60.82
13235;BME280;6683;48.506;9.050;2023-03-15T16:07:51;98294.50;;;10.45;60.69
13235;BME280;6683;48.506;9.050;2023-03-15T16:10:55;98303.75;;;10.41;61.06
13235;BME280;6683;48.506;9.050;2023-03-15T16:13:58;98307.94;;;10.35;60.88
13235;BME280;6683;48.506;9.050;2023-03-15T16:17:01;98320.59;;;10.25;61.14
13235;BME280;6683;48.506;9.050;2023-03-15T16:20:04;98320.84;;;10.16;61.15
13235;BME280;6683;48.506;9.050;2023-03-15T16:23:16;98321.91;;;10.07;61.63
13235;BME280;6683;48.506;9.050;2023-03-15T16:26:21;98332.34;;;10.00;61.92
13235;BME280;6683;48.506;9.050;2023-03-15T16:29:35;98331.97;;;9.89;62.08
13235;BME280;6683;48.506;9.050;2023-03-15T16:32:38;98331.88;;;9.82;62.02
13235;BME280;6683;48.506;9.050;2023-03-15T16:35:40;98342.94;;;9.78;61.88
13235;BME280;6683;48.506;9.050;2023-03-15T16:38:43;98349.72;;;9.72;62.38
13235;BME280;6683;48.506;9.050;2023-03-15T16:41:48;98348.28;;;9.70;62.26
13235;BME280;6683;48.506;9.050;2023-03-15T16:44:52;98347.78;;;9.66;62.20